sensor_id;sensor_type;location;lat;lon;timestamp;temperature;humidity
58161;DHT22;49345;47.428;9.892;2022-09-01T00:01:56;13.80;99.90
58161;DHT22;49345;47.428;9.892;2022-09-01T00:04:22;13.80;99.90
58161;DHT22;49345;47.428;9.892;2022-09-01T00:06:50;13.80;99.90
58161;DHT22;49345;47.428;9.892;2022-09-01T00:09:17;13.90;99.90
58161;DHT22;49345;47.428;9.892;2022-09-01T00:11:44;13.90;99.90
58161;DHT22;49345;47.428;9.892;2022-09-01T00:14:10;14.00;99.90
58161;DHT22;49345;47.428;9.892;2022-09-01T00:16:36;14.00;99.90
58161;DHT22;49345;47.428;9.892;2022-09-01T00:19:02;14.00;99.90
58161;DHT22;49345;47.428;9.892;2022-09-01T00:21:31;14.00;99.90
58161;DHT22;49345;47.428;9.892;2022-09-01T00:23:58;14.00;99.90
58161;DHT22;49345;47.428;9.892;2022-09-01T00:26:24;14.00;99.90
58161;DHT22;49345;47.428;9.892;2022-09-01T00:28:49;14.00;99.90
58161;DHT22;49345;47.428;9.892;2022-09-01T00:31:15;14.10;99.90
58161;DHT22;49345;47.428;9.892;2022-09-01T00:33:44;14.10;99.90
58161;DHT22;49345;47.428;9.892;2022-09-01T00:36:10;14.10;99.90
58161;DHT22;49345;47.428;9.892;2022-09-01T00:38:36;14.10;99.90
58161;DHT22;49345;47.428;9.892;2022-09-01T00:41:01;14.10;99.90
58161;DHT22;49345;47.428;9.892;2022-09-01T00:46:19;14.20;99.90
58161;DHT22;49345;47.428;9.892;2022-09-01T00:48:46;14.20;99.90
58161;DHT22;49345;47.428;9.892;2022-09-01T00:51:13;14.30;99.90
58161;DHT22;49345;47.428;9.892;2022-09-01T00:53:39;14.20;99.90
58161;DHT22;49345;47.428;9.892;2022-09-01T00:56:05;14.30;99.90
58161;DHT22;49345;47.428;9.892;2022-09-01T00:58:32;14.30;99.90
58161;DHT22;49345;47.428;9.892;2022-09-01T01:00:58;14.30;99.90
58161;DHT22;49345;47.428;9.892;2022-09-01T01:03:24;14.40;99.90
58161;DHT22;49345;47.428;9.892;2022-09-01T01:05:50;14.30;99.90
58161;DHT22;49345;47.428;9.892;2022-09-01T01:08:21;14.30;99.90
58161;DHT22;49345;47.428;9.892;2022-09-01T01:10:53;14.30;99.90
58161;DHT22;49345;47.428;9.892;2022-09-01T01:13:18;14.30;99.90
58161;DHT22;49345;47.428;9.892;2022-09-01T01:15:45;14.30;99.90
58161;DHT22;49345;47.428;9.892;2022-09-01T01:18:11;14.30;99.90
58161;DHT22;49345;47.428;9.892;2022-09-01T01:20:37;14.40;99.90
58161;DHT22;49345;47.428;9.892;2022-09-01T01:26:11;14.40;99.90
58161;DHT22;49345;47.428;9.892;2022-09-01T01:28:38;14.50;99.90
58161;DHT22;49345;47.428;9.892;2022-09-01T01:31:06;14.50;99.90
58161;DHT22;49345;47.428;9.892;2022-09-01T01:33:37;14.50;99.90
58161;DHT22;49345;47.428;9.892;2022-09-01T01:36:08;14.50;99.90
58161;DHT22;49345;47.428;9.892;2022-09-01T01:38:38;14.50;99.90
58161;DHT22;49345;47.428;9.892;2022-09-01T01:41:05;14.60;99.90
58161;DHT22;49345;47.428;9.892;2022-09-01T01:43:31;14.60;99.90
58161;DHT22;49345;47.428;9.892;2022-09-01T01:45:56;14.60;99.90
58161;DHT22;49345;47.428;9.892;2022-09-01T01:48:27;14.60;99.90
58161;DHT22;49345;47.428;9.892;2022-09-01T01:50:53;14.60;99.90
58161;DHT22;49345;47.428;9.892;2022-09-01T01:53:19;14.70;99.90
58161;DHT22;49345;47.428;9.892;2022-09-01T01:55:45;14.70;99.90
58161;DHT22;49345;47.428;9.892;2022-09-01T01:58:14;14.70;99.90
58161;DHT22;49345;47.428;9.892;2022-09-01T02:00:39;14.70;99.90
58161;DHT22;49345;47.428;9.892;2022-09-01T02:03:09;14.70;99.90
58161;DHT22;49345;47.428;9.892;2022-09-01T02:05:37;14.70;99.90
58161;DHT22;49345;47.428;9.892;2022-09-01T02:08:05;14.70;99.90
58161;DHT22;49345;47.428;9.892;2022-09-01T02:10:32;14.60;99.90
58161;DHT22;49345;47.428;9.892;2022-09-01T02:12:58;14.70;99.90
58161;DHT22;49345;47.428;9.892;2022-09-01T02:15:29;14.70;99.90
58161;DHT22;49345;47.428;9.892;2022-09-01T02:17:54;14.60;99.90
58161;DHT22;49345;47.428;9.892;2022-09-01T02:20:24;14.60;99.90
58161;DHT22;49345;47.428;9.892;2022-09-01T02:22:54;14.60;99.90
58161;DHT22;49345;47.428;9.892;2022-09-01T02:25:20;14.60;99.90
58161;DHT22;49345;47.428;9.892;2022-09-01T02:27:47;14.70;99.90
58161;DHT22;49345;47.428;9.892;2022-09-01T02:30:16;14.60;99.90
58161;DHT22;49345;47.428;9.892;2022-09-01T02:32:42;14.70;99.90
58161;DHT22;49345;47.428;9.892;2022-09-01T02:35:07;14.60;99.90
58161;DHT22;49345;47.428;9.892;2022-09-01T02:37:35;14.60;99.90
58161;DHT22;49345;47.428;9.892;2022-09-01T02:40:01;14.60;99.90
58161;DHT22;49345;47.428;9.892;2022-09-01T02:42:26;14.70;99.90
58161;DHT22;49345;47.428;9.892;2022-09-01T02:44:56;14.70;99.90
58161;DHT22;49345;47.428;9.892;2022-09-01T02:47:23;14.70;99.90
58161;DHT22;49345;47.428;9.892;2022-09-01T02:49:51;14.70;99.90
58161;DHT22;49345;47.428;9.892;2022-09-01T02:52:17;14.80;99.90
58161;DHT22;49345;47.428;9.892;2022-09-01T02:54:45;14.70;99.90
58161;DHT22;49345;47.428;9.892;2022-09-01T02:57:15;14.80;99.90
58161;DHT22;49345;47.428;9.892;2022-09-01T02:59:41;14.70;99.90
58161;DHT22;49345;47.428;9.892;2022-09-01T03:02:08;14.80;99.90
58161;DHT22;49345;47.428;9.892;2022-09-01T03:04:34;14.70;99.90
58161;DHT22;49345;47.428;9.892;2022-09-01T03:07:00;14.80;99.90
58161;DHT22;49345;47.428;9.892;2022-09-01T03:09:26;14.70;99.90
58161;DHT22;49345;47.428;9.892;2022-09-01T03:11:52;14.80;99.90
58161;DHT22;49345;47.428;9.892;2022-09-01T03:14:19;14.80;99.90
58161;DHT22;49345;47.428;9.892;2022-09-01T03:16:45;14.80;99.90
58161;DHT22;49345;47.428;9.892;2022-09-01T03:19:10;14.70;99.90
58161;DHT22;49345;47.428;9.892;2022-09-01T03:21:37;14.80;99.90
58161;DHT22;49345;47.428;9.892;2022-09-01T03:24:05;14.80;99.90
58161;DHT22;49345;47.428;9.892;2022-09-01T03:26:31;14.70;99.90
58161;DHT22;49345;47.428;9.892;2022-09-01T03:28:56;14.70;99.90
58161;DHT22;49345;47.428;9.892;2022-09-01T03:31:22;14.70;99.90
58161;DHT22;49345;47.428;9.892;2022-09-01T03:33:52;14.70;99.90
58161;DHT22;49345;47.428;9.892;2022-09-01T03:36:18;14.80;99.90
58161;DHT22;49345;47.428;9.892;2022-09-01T03:38:45;14.80;99.90
58161;DHT22;49345;47.428;9.892;2022-09-01T03:41:13;14.70;99.90
58161;DHT22;49345;47.428;9.892;2022-09-01T03:43:39;14.70;99.90
58161;DHT22;49345;47.428;9.892;2022-09-01T03:46:05;14.60;99.90
58161;DHT22;49345;47.428;9.892;2022-09-01T03:48:30;14.60;99.90
58161;DHT22;49345;47.428;9.892;2022-09-01T03:50:57;14.50;99.90
58161;DHT22;49345;47.428;9.892;2022-09-01T03:53:27;14.50;99.90
58161;DHT22;49345;47.428;9.892;2022-09-01T03:55:53;14.50;99.90
58161;DHT22;49345;47.428;9.892;2022-09-01T03:58:20;14.50;99.90
58161;DHT22;49345;47.428;9.892;2022-09-01T04:00:48;14.40;99.90
58161;DHT22;49345;47.428;9.892;2022-09-01T04:03:15;14.30;99.90
58161;DHT22;49345;47.428;9.892;2022-09-01T04:05:47;14.30;99.90
58161;DHT22;49345;47.428;9.892;2022-09-01T04:08:13;14.30;99.90
58161;DHT22;49345;47.428;9.892;2022-09-01T04:13:43;14.30;99.90
58161;DHT22;49345;47.428;9.892;2022-09-01T04:16:17;14.30;99.90
58161;DHT22;49345;47.428;9.892;2022-09-01T04:19:02;14.20;99.90
58161;DHT22;49345;47.428;9.892;2022-09-01T04:21:40;14.10;99.90
58161;DHT22;49345;47.428;9.892;2022-09-01T04:24:07;14.10;99.90
58161;DHT22;49345;47.428;9.892;2022-09-01T04:26:33;14.10;99.90
58161;DHT22;49345;47.428;9.892;2022-09-01T04:28:59;14.10;99.90
58161;DHT22;49345;47.428;9.892;2022-09-01T04:31:25;14.10;99.90
58161;DHT22;49345;47.428;9.892;2022-09-01T04:33:51;14.10;99.90
58161;DHT22;49345;47.428;9.892;2022-09-01T04:36:19;14.10;99.90
58161;DHT22;49345;47.428;9.892;2022-09-01T04:38:49;14.10;99.90
58161;DHT22;49345;47.428;9.892;2022-09-01T04:41:19;14.10;99.90
58161;DHT22;49345;47.428;9.892;2022-09-01T04:43:45;14.00;99.90
58161;DHT22;49345;47.428;9.892;2022-09-01T04:46:12;13.90;99.90
58161;DHT22;49345;47.428;9.892;2022-09-01T04:48:38;13.90;99.90
58161;DHT22;49345;47.428;9.892;2022-09-01T04:51:07;13.70;99.90
58161;DHT22;49345;47.428;9.892;2022-09-01T04:53:35;13.70;99.90
58161;DHT22;49345;47.428;9.892;2022-09-01T04:56:02;13.80;99.90
58161;DHT22;49345;47.428;9.892;2022-09-01T04:58:28;13.70;99.90
58161;DHT22;49345;47.428;9.892;2022-09-01T05:00:55;13.80;99.90
58161;DHT22;49345;47.428;9.892;2022-09-01T05:03:20;13.80;99.90
58161;DHT22;49345;47.428;9.892;2022-09-01T05:05:48;13.90;99.90
58161;DHT22;49345;47.428;9.892;2022-09-01T05:08:15;13.90;99.90
58161;DHT22;49345;47.428;9.892;2022-09-01T05:10:44;14.00;99.90
58161;DHT22;49345;47.428;9.892;2022-09-01T05:13:11;14.00;99.90
58161;DHT22;49345;47.428;9.892;2022-09-01T05:15:40;13.90;99.90
58161;DHT22;49345;47.428;9.892;2022-09-01T05:18:18;14.00;99.90
58161;DHT22;49345;47.428;9.892;2022-09-01T05:20:52;13.90;99.90
58161;DHT22;49345;47.428;9.892;2022-09-01T05:23:18;14.00;99.90
58161;DHT22;49345;47.428;9.892;2022-09-01T05:25:45;14.00;99.90
58161;DHT22;49345;47.428;9.892;2022-09-01T05:28:13;14.00;99.90
58161;DHT22;49345;47.428;9.892;2022-09-01T05:30:40;14.00;99.90
58161;DHT22;49345;47.428;9.892;2022-09-01T05:33:06;14.00;99.90
58161;DHT22;49345;47.428;9.892;2022-09-01T05:35:36;14.00;99.90
58161;DHT22;49345;47.428;9.892;2022-09-01T05:38:02;14.00;99.90
58161;DHT22;49345;47.428;9.892;2022-09-01T05:40:28;14.00;99.90
58161;DHT22;49345;47.428;9.892;2022-09-01T05:42:54;14.10;99.90
58161;DHT22;49345;47.428;9.892;2022-09-01T05:45:20;14.10;99.90
58161;DHT22;49345;47.428;9.892;2022-09-01T05:47:51;14.20;99.90
58161;DHT22;49345;47.428;9.892;2022-09-01T05:50:16;14.20;99.90
58161;DHT22;49345;47.428;9.892;2022-09-01T05:52:43;14.20;99.90
58161;DHT22;49345;47.428;9.892;2022-09-01T05:55:12;14.20;99.90
58161;DHT22;49345;47.428;9.892;2022-09-01T05:57:39;14.30;99.90
58161;DHT22;49345;47.428;9.892;2022-09-01T06:00:07;14.20;99.90
58161;DHT22;49345;47.428;9.892;2022-09-01T06:02:36;14.20;99.90
58161;DHT22;49345;47.428;9.892;2022-09-01T06:05:04;14.20;99.90
58161;DHT22;49345;47.428;9.892;2022-09-01T06:07:30;14.20;99.90
58161;DHT22;49345;47.428;9.892;2022-09-01T06:09:55;14.30;99.90
58161;DHT22;49345;47.428;9.892;2022-09-01T06:12:21;14.30;99.90
58161;DHT22;49345;47.428;9.892;2022-09-01T06:14:48;14.30;99.90
58161;DHT22;49345;47.428;9.892;2022-09-01T06:17:15;14.30;99.90
58161;DHT22;49345;47.428;9.892;2022-09-01T06:19:41;14.40;99.90
58161;DHT22;49345;47.428;9.892;2022-09-01T06:22:07;14.50;99.90
58161;DHT22;49345;47.428;9.892;2022-09-01T06:24:35;14.60;99.90
58161;DHT22;49345;47.428;9.892;2022-09-01T06:27:01;14.60;99.90
58161;DHT22;49345;47.428;9.892;2022-09-01T06:29:27;14.60;99.90
58161;DHT22;49345;47.428;9.892;2022-09-01T06:31:55;14.70;99.90
58161;DHT22;49345;47.428;9.892;2022-09-01T06:34:21;14.80;99.90
58161;DHT22;49345;47.428;9.892;2022-09-01T06:36:47;14.70;99.90
58161;DHT22;49345;47.428;9.892;2022-09-01T06:39:14;14.80;99.90
58161;DHT22;49345;47.428;9.892;2022-09-01T06:41:46;14.80;99.90
58161;DHT22;49345;47.428;9.892;2022-09-01T06:44:12;14.90;99.90
58161;DHT22;49345;47.428;9.892;2022-09-01T06:46:38;15.00;99.90
58161;DHT22;49345;47.428;9.892;2022-09-01T06:49:04;15.10;99.90
58161;DHT22;49345;47.428;9.892;2022-09-01T06:51:30;15.10;99.90
58161;DHT22;49345;47.428;9.892;2022-09-01T06:53:56;15.10;99.90
58161;DHT22;49345;47.428;9.892;2022-09-01T06:56:24;15.10;99.90
58161;DHT22;49345;47.428;9.892;2022-09-01T06:58:52;15.20;99.90
58161;DHT22;49345;47.428;9.892;2022-09-01T07:01:19;15.20;99.90
58161;DHT22;49345;47.428;9.892;2022-09-01T07:03:46;15.30;99.90
58161;DHT22;49345;47.428;9.892;2022-09-01T07:06:12;15.40;99.90
58161;DHT22;49345;47.428;9.892;2022-09-01T07:08:38;15.40;99.90
58161;DHT22;49345;47.428;9.892;2022-09-01T07:11:05;15.30;99.90
58161;DHT22;49345;47.428;9.892;2022-09-01T07:13:32;15.40;99.90
58161;DHT22;49345;47.428;9.892;2022-09-01T07:15:59;15.40;99.90
58161;DHT22;49345;47.428;9.892;2022-09-01T07:18:25;15.50;99.90
58161;DHT22;49345;47.428;9.892;2022-09-01T07:20:51;15.50;99.90
58161;DHT22;49345;47.428;9.892;2022-09-01T07:23:18;15.60;99.90
58161;DHT22;49345;47.428;9.892;2022-09-01T07:25:45;15.70;99.90
58161;DHT22;49345;47.428;9.892;2022-09-01T07:28:12;15.90;99.90
58161;DHT22;49345;47.428;9.892;2022-09-01T07:30:39;15.90;99.90
58161;DHT22;49345;47.428;9.892;2022-09-01T07:33:05;16.00;99.90
58161;DHT22;49345;47.428;9.892;2022-09-01T07:35:35;16.20;99.90
58161;DHT22;49345;47.428;9.892;2022-09-01T07:38:02;16.20;99.90
58161;DHT22;49345;47.428;9.892;2022-09-01T07:40:30;16.30;99.90
58161;DHT22;49345;47.428;9.892;2022-09-01T07:42:55;16.50;99.90
58161;DHT22;49345;47.428;9.892;2022-09-01T07:45:22;16.60;99.90
58161;DHT22;49345;47.428;9.892;2022-09-01T07:47:50;16.70;99.90
58161;DHT22;49345;47.428;9.892;2022-09-01T07:50:15;16.90;99.90
58161;DHT22;49345;47.428;9.892;2022-09-01T07:52:42;17.00;99.90
58161;DHT22;49345;47.428;9.892;2022-09-01T07:57:48;17.20;99.90
58161;DHT22;49345;47.428;9.892;2022-09-01T08:00:14;17.50;99.90
58161;DHT22;49345;47.428;9.892;2022-09-01T08:02:40;17.70;99.90
58161;DHT22;49345;47.428;9.892;2022-09-01T08:07:35;18.10;99.90
58161;DHT22;49345;47.428;9.892;2022-09-01T08:10:01;18.00;99.90
58161;DHT22;49345;47.428;9.892;2022-09-01T08:12:26;18.10;99.90
58161;DHT22;49345;47.428;9.892;2022-09-01T08:14:52;18.20;99.90
58161;DHT22;49345;47.428;9.892;2022-09-01T08:17:18;18.30;99.90
58161;DHT22;49345;47.428;9.892;2022-09-01T08:19:45;18.40;99.90
58161;DHT22;49345;47.428;9.892;2022-09-01T08:22:11;18.50;99.90
58161;DHT22;49345;47.428;9.892;2022-09-01T08:24:37;18.50;99.90
58161;DHT22;49345;47.428;9.892;2022-09-01T08:27:02;18.50;99.90
58161;DHT22;49345;47.428;9.892;2022-09-01T08:29:28;18.50;99.90
58161;DHT22;49345;47.428;9.892;2022-09-01T08:31:54;18.60;99.90
58161;DHT22;49345;47.428;9.892;2022-09-01T08:34:20;18.70;99.90
58161;DHT22;49345;47.428;9.892;2022-09-01T08:36:45;18.70;99.90
58161;DHT22;49345;47.428;9.892;2022-09-01T08:39:11;18.60;99.90
58161;DHT22;49345;47.428;9.892;2022-09-01T08:41:40;18.60;99.90
58161;DHT22;49345;47.428;9.892;2022-09-01T08:44:11;18.60;99.90
58161;DHT22;49345;47.428;9.892;2022-09-01T08:46:39;18.60;99.90
58161;DHT22;49345;47.428;9.892;2022-09-01T08:49:08;18.70;99.90
58161;DHT22;49345;47.428;9.892;2022-09-01T08:54:37;18.60;99.90
58161;DHT22;49345;47.428;9.892;2022-09-01T08:57:07;18.70;99.90
58161;DHT22;49345;47.428;9.892;2022-09-01T08:59:34;18.60;99.90
58161;DHT22;49345;47.428;9.892;2022-09-01T09:10:24;18.70;99.90
58161;DHT22;49345;47.428;9.892;2022-09-01T09:12:59;18.80;99.90
58161;DHT22;49345;47.428;9.892;2022-09-01T09:15:32;18.90;99.90
58161;DHT22;49345;47.428;9.892;2022-09-01T09:18:06;19.00;99.90
58161;DHT22;49345;47.428;9.892;2022-09-01T09:20:34;19.10;99.90
58161;DHT22;49345;47.428;9.892;2022-09-01T09:23:01;19.20;99.90
58161;DHT22;49345;47.428;9.892;2022-09-01T09:25:31;19.30;99.90
58161;DHT22;49345;47.428;9.892;2022-09-01T09:27:57;19.40;99.90
58161;DHT22;49345;47.428;9.892;2022-09-01T09:30:25;19.60;99.90
58161;DHT22;49345;47.428;9.892;2022-09-01T09:32:52;19.80;99.90
58161;DHT22;49345;47.428;9.892;2022-09-01T09:35:22;20.10;99.90
58161;DHT22;49345;47.428;9.892;2022-09-01T09:37:48;20.20;99.90
58161;DHT22;49345;47.428;9.892;2022-09-01T09:40:22;20.30;99.90
58161;DHT22;49345;47.428;9.892;2022-09-01T09:45:39;20.40;98.70
58161;DHT22;49345;47.428;9.892;2022-09-01T09:48:06;20.50;98.70
58161;DHT22;49345;47.428;9.892;2022-09-01T09:50:36;20.50;98.10
58161;DHT22;49345;47.428;9.892;2022-09-01T09:58:36;20.40;97.50
58161;DHT22;49345;47.428;9.892;2022-09-01T10:03:47;20.40;98.70
58161;DHT22;49345;47.428;9.892;2022-09-01T10:06:28;20.30;99.30
58161;DHT22;49345;47.428;9.892;2022-09-01T10:08:54;20.20;99.10
58161;DHT22;49345;47.428;9.892;2022-09-01T10:11:30;20.20;99.60
58161;DHT22;49345;47.428;9.892;2022-09-01T10:13:57;20.30;99.90
58161;DHT22;49345;47.428;9.892;2022-09-01T10:16:26;20.20;99.90
58161;DHT22;49345;47.428;9.892;2022-09-01T10:18:52;20.30;99.90
58161;DHT22;49345;47.428;9.892;2022-09-01T10:21:30;20.40;99.90
58161;DHT22;49345;47.428;9.892;2022-09-01T10:23:57;20.70;99.90
58161;DHT22;49345;47.428;9.892;2022-09-01T10:26:25;20.80;99.20
58161;DHT22;49345;47.428;9.892;2022-09-01T10:28:58;20.90;99.20
58161;DHT22;49345;47.428;9.892;2022-09-01T10:31:25;21.00;99.10
58161;DHT22;49345;47.428;9.892;2022-09-01T10:33:51;20.90;98.60
58161;DHT22;49345;47.428;9.892;2022-09-01T10:36:17;20.90;98.50
58161;DHT22;49345;47.428;9.892;2022-09-01T10:38:43;20.90;99.20
58161;DHT22;49345;47.428;9.892;2022-09-01T10:41:09;20.80;98.70
58161;DHT22;49345;47.428;9.892;2022-09-01T10:49:03;20.70;99.20
58161;DHT22;49345;47.428;9.892;2022-09-01T10:51:41;20.80;98.60
58161;DHT22;49345;47.428;9.892;2022-09-01T10:54:07;20.70;98.10
58161;DHT22;49345;47.428;9.892;2022-09-01T10:56:40;20.80;99.30
58161;DHT22;49345;47.428;9.892;2022-09-01T11:02:03;21.20;98.10
58161;DHT22;49345;47.428;9.892;2022-09-01T11:15:56;21.80;97.70
58161;DHT22;49345;47.428;9.892;2022-09-01T11:18:41;21.90;97.00
58161;DHT22;49345;47.428;9.892;2022-09-01T11:21:15;21.90;96.50
58161;DHT22;49345;47.428;9.892;2022-09-01T11:23:42;21.80;95.10
58161;DHT22;49345;47.428;9.892;2022-09-01T11:29:05;21.90;95.30
58161;DHT22;49345;47.428;9.892;2022-09-01T11:31:37;21.90;95.80
58161;DHT22;49345;47.428;9.892;2022-09-01T11:34:20;21.80;96.40
58161;DHT22;49345;47.428;9.892;2022-09-01T11:47:29;21.80;95.80
58161;DHT22;49345;47.428;9.892;2022-09-01T11:49:57;21.70;95.90
58161;DHT22;49345;47.428;9.892;2022-09-01T11:52:24;21.80;95.90
58161;DHT22;49345;47.428;9.892;2022-09-01T11:54:51;21.90;95.70
58161;DHT22;49345;47.428;9.892;2022-09-01T11:57:19;22.10;95.40
58161;DHT22;49345;47.428;9.892;2022-09-01T11:59:45;22.20;95.30
58161;DHT22;49345;47.428;9.892;2022-09-01T12:05:21;22.20;95.30
58161;DHT22;49345;47.428;9.892;2022-09-01T12:07:48;22.20;95.60
58161;DHT22;49345;47.428;9.892;2022-09-01T12:10:16;22.20;95.20
58161;DHT22;49345;47.428;9.892;2022-09-01T12:12:43;22.10;95.00
58161;DHT22;49345;47.428;9.892;2022-09-01T12:15:13;22.10;95.10
58161;DHT22;49345;47.428;9.892;2022-09-01T12:17:41;22.20;94.90
58161;DHT22;49345;47.428;9.892;2022-09-01T12:20:17;22.20;94.60
58161;DHT22;49345;47.428;9.892;2022-09-01T12:22:43;22.10;94.10
58161;DHT22;49345;47.428;9.892;2022-09-01T12:25:13;22.10;94.00
58161;DHT22;49345;47.428;9.892;2022-09-01T12:27:42;22.20;94.30
58161;DHT22;49345;47.428;9.892;2022-09-01T12:30:08;22.20;94.00
58161;DHT22;49345;47.428;9.892;2022-09-01T12:32:34;22.30;94.00
58161;DHT22;49345;47.428;9.892;2022-09-01T12:35:00;22.30;94.30
58161;DHT22;49345;47.428;9.892;2022-09-01T12:37:27;22.10;93.90
58161;DHT22;49345;47.428;9.892;2022-09-01T12:39:54;22.10;94.10
58161;DHT22;49345;47.428;9.892;2022-09-01T12:42:23;22.10;94.10
58161;DHT22;49345;47.428;9.892;2022-09-01T12:52:54;22.20;94.80
58161;DHT22;49345;47.428;9.892;2022-09-01T12:55:21;22.30;93.90
58161;DHT22;49345;47.428;9.892;2022-09-01T12:57:47;22.30;94.50
58161;DHT22;49345;47.428;9.892;2022-09-01T13:00:17;22.40;93.60
58161;DHT22;49345;47.428;9.892;2022-09-01T13:02:45;22.30;93.50
58161;DHT22;49345;47.428;9.892;2022-09-01T13:08:17;22.30;93.80
58161;DHT22;49345;47.428;9.892;2022-09-01T13:10:44;22.50;93.10
58161;DHT22;49345;47.428;9.892;2022-09-01T13:13:10;22.40;93.60
58161;DHT22;49345;47.428;9.892;2022-09-01T13:15:41;22.40;92.80
58161;DHT22;49345;47.428;9.892;2022-09-01T13:18:07;22.50;92.80
58161;DHT22;49345;47.428;9.892;2022-09-01T13:20:32;22.40;92.90
58161;DHT22;49345;47.428;9.892;2022-09-01T13:22:58;22.40;93.10
58161;DHT22;49345;47.428;9.892;2022-09-01T13:25:24;22.40;93.80
58161;DHT22;49345;47.428;9.892;2022-09-01T13:27:49;22.20;93.80
58161;DHT22;49345;47.428;9.892;2022-09-01T13:30:18;22.20;93.40
58161;DHT22;49345;47.428;9.892;2022-09-01T13:32:45;22.30;93.30
58161;DHT22;49345;47.428;9.892;2022-09-01T13:35:12;22.20;93.90
58161;DHT22;49345;47.428;9.892;2022-09-01T13:37:37;22.10;93.50
58161;DHT22;49345;47.428;9.892;2022-09-01T13:40:03;22.30;93.90
58161;DHT22;49345;47.428;9.892;2022-09-01T13:42:31;22.40;93.50
58161;DHT22;49345;47.428;9.892;2022-09-01T13:44:57;22.40;93.10
58161;DHT22;49345;47.428;9.892;2022-09-01T13:47:22;22.50;93.00
58161;DHT22;49345;47.428;9.892;2022-09-01T13:49:48;22.50;92.70
58161;DHT22;49345;47.428;9.892;2022-09-01T13:52:14;22.50;92.40
58161;DHT22;49345;47.428;9.892;2022-09-01T13:54:40;22.50;93.30
58161;DHT22;49345;47.428;9.892;2022-09-01T13:57:06;22.40;93.20
58161;DHT22;49345;47.428;9.892;2022-09-01T13:59:32;22.50;93.30
58161;DHT22;49345;47.428;9.892;2022-09-01T14:01:57;22.60;93.90
58161;DHT22;49345;47.428;9.892;2022-09-01T14:04:23;22.60;92.60
58161;DHT22;49345;47.428;9.892;2022-09-01T14:06:49;22.70;92.70
58161;DHT22;49345;47.428;9.892;2022-09-01T14:09:14;22.70;92.20
58161;DHT22;49345;47.428;9.892;2022-09-01T14:11:40;22.60;93.00
58161;DHT22;49345;47.428;9.892;2022-09-01T14:14:06;22.30;92.80
58161;DHT22;49345;47.428;9.892;2022-09-01T14:16:32;22.30;93.20
58161;DHT22;49345;47.428;9.892;2022-09-01T14:18:57;22.30;92.80
58161;DHT22;49345;47.428;9.892;2022-09-01T14:21:24;22.30;93.00
58161;DHT22;49345;47.428;9.892;2022-09-01T14:23:50;22.50;93.00
58161;DHT22;49345;47.428;9.892;2022-09-01T14:26:16;22.70;92.20
58161;DHT22;49345;47.428;9.892;2022-09-01T14:28:43;22.70;91.50
58161;DHT22;49345;47.428;9.892;2022-09-01T14:31:11;22.70;91.50
58161;DHT22;49345;47.428;9.892;2022-09-01T14:33:38;22.70;91.50
58161;DHT22;49345;47.428;9.892;2022-09-01T14:36:04;22.70;91.80
58161;DHT22;49345;47.428;9.892;2022-09-01T14:38:30;22.70;91.40
58161;DHT22;49345;47.428;9.892;2022-09-01T14:40:55;22.80;91.50
58161;DHT22;49345;47.428;9.892;2022-09-01T14:43:21;22.70;91.90
58161;DHT22;49345;47.428;9.892;2022-09-01T14:45:47;22.80;91.60
58161;DHT22;49345;47.428;9.892;2022-09-01T14:48:14;22.70;91.20
58161;DHT22;49345;47.428;9.892;2022-09-01T14:50:41;22.70;91.80
58161;DHT22;49345;47.428;9.892;2022-09-01T14:53:07;22.70;91.20
58161;DHT22;49345;47.428;9.892;2022-09-01T14:55:32;22.80;91.30
58161;DHT22;49345;47.428;9.892;2022-09-01T14:57:58;22.80;91.10
58161;DHT22;49345;47.428;9.892;2022-09-01T15:00:25;22.80;91.50
58161;DHT22;49345;47.428;9.892;2022-09-01T15:02:50;22.90;91.20
58161;DHT22;49345;47.428;9.892;2022-09-01T15:05:16;22.90;90.60
58161;DHT22;49345;47.428;9.892;2022-09-01T15:07:42;22.70;90.60
58161;DHT22;49345;47.428;9.892;2022-09-01T15:10:08;22.40;92.20
58161;DHT22;49345;47.428;9.892;2022-09-01T15:12:34;22.30;91.70
58161;DHT22;49345;47.428;9.892;2022-09-01T15:15:00;22.20;91.60
58161;DHT22;49345;47.428;9.892;2022-09-01T15:17:26;22.20;91.90
58161;DHT22;49345;47.428;9.892;2022-09-01T15:19:51;22.10;92.80
58161;DHT22;49345;47.428;9.892;2022-09-01T15:22:17;22.10;92.50
58161;DHT22;49345;47.428;9.892;2022-09-01T15:24:43;22.20;92.50
58161;DHT22;49345;47.428;9.892;2022-09-01T15:27:09;22.10;92.60
58161;DHT22;49345;47.428;9.892;2022-09-01T15:29:35;22.10;92.10
58161;DHT22;49345;47.428;9.892;2022-09-01T15:32:10;22.10;92.20
58161;DHT22;49345;47.428;9.892;2022-09-01T15:34:36;22.10;93.30
58161;DHT22;49345;47.428;9.892;2022-09-01T15:37:02;22.10;93.10
58161;DHT22;49345;47.428;9.892;2022-09-01T15:39:28;21.90;92.80
58161;DHT22;49345;47.428;9.892;2022-09-01T15:41:53;21.80;92.60
58161;DHT22;49345;47.428;9.892;2022-09-01T15:44:19;21.80;92.90
58161;DHT22;49345;47.428;9.892;2022-09-01T15:46:44;21.80;93.00
58161;DHT22;49345;47.428;9.892;2022-09-01T15:49:10;21.80;93.30
58161;DHT22;49345;47.428;9.892;2022-09-01T15:51:40;21.80;93.10
58161;DHT22;49345;47.428;9.892;2022-09-01T15:54:08;21.80;93.60
58161;DHT22;49345;47.428;9.892;2022-09-01T15:56:34;21.80;93.80
58161;DHT22;49345;47.428;9.892;2022-09-01T15:59:00;21.90;93.40
58161;DHT22;49345;47.428;9.892;2022-09-01T16:01:26;21.90;93.10
58161;DHT22;49345;47.428;9.892;2022-09-01T16:03:52;21.90;93.30
58161;DHT22;49345;47.428;9.892;2022-09-01T16:06:18;21.80;93.20
58161;DHT22;49345;47.428;9.892;2022-09-01T16:08:44;21.70;93.50
58161;DHT22;49345;47.428;9.892;2022-09-01T16:11:09;21.60;94.30
58161;DHT22;49345;47.428;9.892;2022-09-01T16:13:37;21.60;93.80
58161;DHT22;49345;47.428;9.892;2022-09-01T16:21:51;21.50;93.70
58161;DHT22;49345;47.428;9.892;2022-09-01T16:24:18;21.50;93.60
58161;DHT22;49345;47.428;9.892;2022-09-01T16:26:45;21.30;93.40
58161;DHT22;49345;47.428;9.892;2022-09-01T16:29:11;21.20;93.50
58161;DHT22;49345;47.428;9.892;2022-09-01T16:31:39;21.10;93.80
58161;DHT22;49345;47.428;9.892;2022-09-01T16:34:08;21.00;93.90
58161;DHT22;49345;47.428;9.892;2022-09-01T16:36:44;21.00;94.00
58161;DHT22;49345;47.428;9.892;2022-09-01T16:45:11;20.80;94.20
58161;DHT22;49345;47.428;9.892;2022-09-01T16:53:20;20.70;94.40
58161;DHT22;49345;47.428;9.892;2022-09-01T17:01:25;20.70;94.30
58161;DHT22;49345;47.428;9.892;2022-09-01T17:09:28;20.50;94.50
58161;DHT22;49345;47.428;9.892;2022-09-01T17:12:02;20.40;94.80
58161;DHT22;49345;47.428;9.892;2022-09-01T17:14:39;20.30;94.80
58161;DHT22;49345;47.428;9.892;2022-09-01T17:17:07;20.30;95.30
58161;DHT22;49345;47.428;9.892;2022-09-01T17:19:33;20.20;95.20
58161;DHT22;49345;47.428;9.892;2022-09-01T17:22:05;20.10;95.50
58161;DHT22;49345;47.428;9.892;2022-09-01T17:24:33;19.90;95.80